createdAt,value
2022-10-30T00:00:45.080Z,48.22
2022-10-30T00:03:15.267Z,49.00
2022-10-30T00:05:43.946Z,43.85
2022-10-30T00:08:15.182Z,50.28
2022-10-30T00:10:41.956Z,47.70
2022-10-30T00:13:08.923Z,45.03
2022-10-30T00:15:36.061Z,43.92
2022-10-30T00:18:03.115Z,45.40
2022-10-30T00:20:29.957Z,44.58
2022-10-30T00:22:56.876Z,44.03
2022-10-30T00:25:23.947Z,42.20
2022-10-30T00:27:50.526Z,43.75
2022-10-30T00:30:18.780Z,44.55
2022-10-30T00:32:45.384Z,46.35
2022-10-30T00:35:12.127Z,45.38
2022-10-30T00:37:38.820Z,43.05
2022-10-30T00:40:06.692Z,42.88
2022-10-30T00:42:33.267Z,42.78
2022-10-30T00:44:59.849Z,42.85
2022-10-30T00:47:50.287Z,40.28
2022-10-30T00:50:18.443Z,45.42
2022-10-30T00:52:52.260Z,40.92
2022-10-30T00:55:28.972Z,43.78
2022-10-30T00:57:56.287Z,36.50
2022-10-30T01:00:24.019Z,37.15
2022-10-30T01:02:51.544Z,35.20
2022-10-30T01:05:22.267Z,35.70
2022-10-30T01:07:48.834Z,35.63
2022-10-30T01:10:16.371Z,37.42
2022-10-30T01:12:44.513Z,33.25
2022-10-30T01:15:13.091Z,34.17
2022-10-30T01:18:16.149Z,31.60
2022-10-30T01:20:57.865Z,36.00
2022-10-30T01:24:19.679Z,34.17
2022-10-30T01:26:49.197Z,36.03
2022-10-30T01:29:22.169Z,33.75
2022-10-30T01:32:26.340Z,34.55
2022-10-30T01:35:19.396Z,33.10
2022-10-30T01:37:54.802Z,37.40
2022-10-30T01:40:21.454Z,40.40
2022-10-30T01:42:49.631Z,38.50
2022-10-30T01:45:54.032Z,38.58
2022-10-30T01:48:29.436Z,41.55
2022-10-30T01:51:22.892Z,39.72
2022-10-30T01:54:14.082Z,40.63
2022-10-30T01:56:46.671Z,41.05
2022-10-30T01:59:34.985Z,40.40
2022-10-30T02:02:01.741Z,44.30
2022-10-30T02:04:28.796Z,42.22
2022-10-30T02:06:55.482Z,41.03
2022-10-30T02:09:22.257Z,41.05
2022-10-30T02:11:51.343Z,41.35
2022-10-30T02:14:26.757Z,42.63
2022-10-30T02:16:56.700Z,41.38
2022-10-30T02:19:23.284Z,41.15
2022-10-30T02:21:50.729Z,40.30
2022-10-30T02:24:17.312Z,43.72
2022-10-30T02:26:43.908Z,35.47
2022-10-30T02:29:10.531Z,34.33
2022-10-30T02:31:37.299Z,39.75
2022-10-30T02:34:04.098Z,43.33
2022-10-30T02:36:30.744Z,37.75
2022-10-30T02:38:57.362Z,37.80
2022-10-30T02:41:24.447Z,35.70
2022-10-30T02:43:53.274Z,39.40
2022-10-30T02:46:19.968Z,42.53
2022-10-30T02:48:46.532Z,38.45
2022-10-30T02:51:13.236Z,37.08
2022-10-30T02:53:39.804Z,32.70
2022-10-30T02:56:09.200Z,32.90
2022-10-30T02:58:36.189Z,38.80
2022-10-30T03:01:15.233Z,36.65
2022-10-30T03:03:42.571Z,41.13
2022-10-30T03:06:12.391Z,34.55
2022-10-30T03:08:38.964Z,33.90
2022-10-30T03:11:14.860Z,35.60
2022-10-30T03:13:42.310Z,38.55
2022-10-30T03:16:14.787Z,35.92
2022-10-30T03:18:41.428Z,37.45
2022-10-30T03:21:10.382Z,34.72
2022-10-30T03:23:37.258Z,32.22
2022-10-30T03:26:04.796Z,36.35
2022-10-30T03:28:32.272Z,31.38
2022-10-30T03:31:07.628Z,33.95
2022-10-30T03:33:35.228Z,35.78
2022-10-30T03:36:02.247Z,30.65
2022-10-30T03:38:28.862Z,32.50
2022-10-30T03:40:55.555Z,35.47
2022-10-30T03:43:22.123Z,29.17
2022-10-30T03:45:50.269Z,31.77
2022-10-30T03:48:18.423Z,29.52
2022-10-30T03:50:45.979Z,29.52
2022-10-30T03:53:13.686Z,34.05
2022-10-30T03:55:40.796Z,33.45
2022-10-30T03:58:07.762Z,29.02
2022-10-30T04:00:35.057Z,31.67
2022-10-30T04:03:05.500Z,32.40
2022-10-30T04:05:32.699Z,27.73
2022-10-30T04:08:01.558Z,28.00
2022-10-30T04:10:28.542Z,32.30
2022-10-30T04:13:06.255Z,28.23
2022-10-30T04:15:33.697Z,28.00
2022-10-30T04:18:00.904Z,27.98
2022-10-30T04:20:28.118Z,28.88
2022-10-30T04:22:59.155Z,28.52
2022-10-30T04:25:26.705Z,32.17
2022-10-30T04:27:53.315Z,25.80
2022-10-30T04:30:25.047Z,28.45
2022-10-30T04:32:55.980Z,31.48
2022-10-30T04:35:25.651Z,28.17
2022-10-30T04:38:12.430Z,33.00
2022-10-30T04:40:40.849Z,25.23
2022-10-30T04:43:09.290Z,28.02
2022-10-30T04:45:36.963Z,23.73
2022-10-30T04:48:06.366Z,26.27
2022-10-30T04:50:33.876Z,29.98
2022-10-30T04:53:02.336Z,29.92
2022-10-30T04:55:29.873Z,31.00
2022-10-30T04:57:58.654Z,29.30
2022-10-30T05:00:27.013Z,28.92
2022-10-30T05:02:53.591Z,33.13
2022-10-30T05:05:20.575Z,32.70
2022-10-30T05:07:47.136Z,29.75
2022-10-30T05:10:14.809Z,30.75
2022-10-30T05:12:43.263Z,27.58
2022-10-30T05:15:10.499Z,24.10
2022-10-30T05:17:37.333Z,25.20
2022-10-30T05:20:12.326Z,23.17
2022-10-30T05:22:41.454Z,26.75
2022-10-30T05:25:08.210Z,28.30
2022-10-30T05:27:34.769Z,31.08
2022-10-30T05:30:01.923Z,27.35
2022-10-30T05:32:28.558Z,23.83
2022-10-30T05:34:55.092Z,26.75
2022-10-30T05:37:21.656Z,27.70
2022-10-30T05:39:48.258Z,28.52
2022-10-30T05:42:14.849Z,26.50
2022-10-30T05:44:59.977Z,31.15
2022-10-30T05:47:27.321Z,29.45
2022-10-30T05:49:53.894Z,26.63
2022-10-30T05:52:20.531Z,24.48
2022-10-30T05:54:47.065Z,22.40
2022-10-30T05:57:13.692Z,25.10
2022-10-30T05:59:40.321Z,23.20
2022-10-30T06:02:07.104Z,29.10
2022-10-30T06:04:37.035Z,25.40
2022-10-30T06:07:04.137Z,21.92
2022-10-30T06:09:30.781Z,25.75
2022-10-30T06:11:58.535Z,23.45
2022-10-30T06:14:28.555Z,29.33
2022-10-30T06:16:55.195Z,23.63
2022-10-30T06:19:21.778Z,24.13
2022-10-30T06:21:48.445Z,24.55
2022-10-30T06:24:15.550Z,24.35
2022-10-30T06:26:42.506Z,24.63
2022-10-30T06:29:09.079Z,24.60
2022-10-30T06:31:35.640Z,30.95
2022-10-30T06:34:02.301Z,32.30
2022-10-30T06:36:28.990Z,28.40
2022-10-30T06:38:55.594Z,30.45
2022-10-30T06:41:26.067Z,34.95
2022-10-30T06:43:56.632Z,33.38
2022-10-30T06:46:25.741Z,30.60
2022-10-30T06:48:55.578Z,29.95
2022-10-30T06:51:22.341Z,28.70
2022-10-30T06:53:49.038Z,30.77
2022-10-30T06:56:15.592Z,26.83
2022-10-30T06:58:43.077Z,28.25
2022-10-30T07:01:09.749Z,28.40
2022-10-30T07:03:36.352Z,27.08
2022-10-30T07:06:03.748Z,33.83
2022-10-30T07:08:30.361Z,30.10
2022-10-30T07:10:58.522Z,28.63
2022-10-30T07:13:25.354Z,27.40
2022-10-30T07:15:51.913Z,25.75
2022-10-30T07:18:18.548Z,27.30
2022-10-30T07:20:45.292Z,26.38
2022-10-30T07:23:11.899Z,33.50
2022-10-30T07:25:38.460Z,25.13
2022-10-30T07:28:23.924Z,26.75
2022-10-30T07:30:50.485Z,28.83
2022-10-30T07:33:17.050Z,30.27
2022-10-30T07:35:44.049Z,30.30
2022-10-30T07:38:12.565Z,30.23
2022-10-30T07:40:39.173Z,24.98
2022-10-30T07:43:06.204Z,30.65
2022-10-30T07:45:33.462Z,32.35
2022-10-30T07:48:00.625Z,34.80
2022-10-30T07:50:27.864Z,36.03
2022-10-30T07:52:54.437Z,35.15
2022-10-30T07:55:21.285Z,32.60
2022-10-30T07:57:47.882Z,40.15
2022-10-30T08:00:15.533Z,35.17
2022-10-30T08:02:42.961Z,37.38
2022-10-30T08:05:10.070Z,35.00
2022-10-30T08:07:38.910Z,33.97
2022-10-30T08:10:07.450Z,35.25
2022-10-30T08:12:36.140Z,29.75
2022-10-30T08:15:02.765Z,29.67
2022-10-30T08:17:29.380Z,29.90
2022-10-30T08:19:57.031Z,28.33
2022-10-30T08:22:23.829Z,32.85
2022-10-30T08:24:50.593Z,27.65
2022-10-30T08:27:17.170Z,29.15
2022-10-30T08:29:45.820Z,31.45
2022-10-30T08:32:14.675Z,26.67
2022-10-30T08:34:41.472Z,27.33
2022-10-30T08:37:08.176Z,21.13
2022-10-30T08:39:34.900Z,20.58
2022-10-30T08:42:01.580Z,21.98
2022-10-30T08:44:28.134Z,20.90
2022-10-30T08:46:54.764Z,21.05
2022-10-30T08:49:21.388Z,15.73
2022-10-30T08:51:48.051Z,20.45
2022-10-30T08:54:14.660Z,21.27
2022-10-30T08:56:41.316Z,18.00
2022-10-30T08:59:07.924Z,18.45
2022-10-30T09:01:36.327Z,15.10
2022-10-30T09:04:03.260Z,17.88
2022-10-30T09:06:31.557Z,14.77
2022-10-30T09:08:58.165Z,12.57
2022-10-30T09:11:24.754Z,10.57
2022-10-30T09:13:51.323Z,14.40
2022-10-30T09:16:18.451Z,10.45
2022-10-30T09:18:45.026Z,12.82
2022-10-30T09:21:11.643Z,11.85
2022-10-30T09:23:38.194Z,11.98
2022-10-30T09:26:04.816Z,11.85
2022-10-30T09:28:31.453Z,11.65
2022-10-30T09:30:58.036Z,11.77
2022-10-30T09:33:24.673Z,15.23
2022-10-30T09:35:51.211Z,10.20
2022-10-30T09:38:17.812Z,11.25
2022-10-30T09:41:10.323Z,12.18
2022-10-30T09:43:45.728Z,13.18
2022-10-30T09:46:27.724Z,12.95
2022-10-30T09:49:13.300Z,10.68
2022-10-30T09:51:45.587Z,13.38
2022-10-30T09:54:19.767Z,13.18
2022-10-30T09:57:08.761Z,13.43
2022-10-30T10:00:03.620Z,13.18
2022-10-30T10:02:49.126Z,15.55
2022-10-30T10:05:21.301Z,13.68
2022-10-30T10:07:51.211Z,13.68
2022-10-30T10:10:43.376Z,16.50
2022-10-30T10:13:30.240Z,14.80
2022-10-30T10:16:23.767Z,12.48
2022-10-30T10:19:02.930Z,14.95
2022-10-30T10:21:31.406Z,15.50
2022-10-30T10:24:01.442Z,14.93
2022-10-30T10:27:16.534Z,14.23
2022-10-30T10:30:15.566Z,13.95
2022-10-30T10:33:00.979Z,13.43
2022-10-30T10:35:40.442Z,13.32
2022-10-30T10:38:39.690Z,14.35
2022-10-30T10:41:15.202Z,12.35
2022-10-30T10:46:53.894Z,13.13
2022-10-30T10:49:42.610Z,13.07
2022-10-30T10:52:14.057Z,12.95
2022-10-30T10:54:48.049Z,17.10
2022-10-30T10:57:27.264Z,14.63
2022-10-30T11:00:01.316Z,12.05
2022-10-30T11:02:40.625Z,13.45
2022-10-30T11:05:16.130Z,12.55
2022-10-30T11:07:50.725Z,14.43
2022-10-30T11:10:19.740Z,15.48
2022-10-30T11:12:46.762Z,12.38
2022-10-30T11:15:29.232Z,13.48
2022-10-30T11:18:07.334Z,14.70
2022-10-30T11:21:10.495Z,14.85
2022-10-30T11:23:43.009Z,15.38
2022-10-30T11:26:18.748Z,16.27
2022-10-30T11:29:02.836Z,14.25
2022-10-30T11:31:40.843Z,14.25
2022-10-30T11:34:18.833Z,10.98
2022-10-30T11:36:52.135Z,15.13
2022-10-30T11:39:29.262Z,12.88
2022-10-30T11:42:18.398Z,15.68
2022-10-30T11:47:26.153Z,12.43
2022-10-30T11:50:06.525Z,13.07
2022-10-30T11:52:49.020Z,13.18
2022-10-30T11:55:22.870Z,13.70
2022-10-30T11:57:56.213Z,12.05
2022-10-30T12:03:44.907Z,11.07
2022-10-30T12:06:29.603Z,11.77
2022-10-30T12:09:21.812Z,12.32
2022-10-30T12:11:49.595Z,10.23
2022-10-30T12:14:20.716Z,12.95
2022-10-30T12:16:52.304Z,11.38
2022-10-30T12:19:21.778Z,13.52
2022-10-30T12:21:54.111Z,9.35
2022-10-30T12:24:33.202Z,11.48
2022-10-30T12:27:10.302Z,13.93
2022-10-30T12:30:07.322Z,9.60
2022-10-30T12:33:00.809Z,12.25
2022-10-30T12:35:46.564Z,9.85
2022-10-30T12:38:26.817Z,9.73
2022-10-30T12:41:04.052Z,13.32
2022-10-30T12:43:34.894Z,12.07
2022-10-30T12:46:30.599Z,9.77
2022-10-30T12:49:18.312Z,8.80
2022-10-30T12:51:58.521Z,9.48
2022-10-30T12:54:44.080Z,8.10
2022-10-30T12:57:43.217Z,10.45
2022-10-30T13:00:16.100Z,10.65
2022-10-30T13:02:50.405Z,10.80
2022-10-30T13:05:40.122Z,7.75
2022-10-30T13:08:31.902Z,11.13
2022-10-30T13:11:17.124Z,11.13
2022-10-30T13:13:49.954Z,9.30
2022-10-30T13:16:28.598Z,9.75
2022-10-30T13:19:01.268Z,11.25
2022-10-30T13:21:38.300Z,11.63
2022-10-30T13:24:25.971Z,13.35
2022-10-30T13:27:29.888Z,14.25
2022-10-30T13:30:04.093Z,14.77
2022-10-30T13:33:00.514Z,11.73
2022-10-30T13:35:46.393Z,13.18
2022-10-30T13:38:45.180Z,13.10
2022-10-30T13:41:28.180Z,11.63
2022-10-30T13:44:06.547Z,11.32
2022-10-30T13:46:45.227Z,13.10
2022-10-30T13:49:49.685Z,12.25
2022-10-30T13:52:22.200Z,12.15
2022-10-30T13:55:03.880Z,11.02
2022-10-30T13:57:41.278Z,14.30
2022-10-30T14:00:14.561Z,15.88
2022-10-30T14:03:05.868Z,10.38
2022-10-30T14:05:45.372Z,11.02
2022-10-30T14:08:38.805Z,12.82
2022-10-30T14:11:07.303Z,11.65
2022-10-30T14:14:03.532Z,13.00
2022-10-30T14:16:41.417Z,11.02
2022-10-30T14:19:10.274Z,10.13
2022-10-30T14:21:55.970Z,9.48
2022-10-30T14:24:28.904Z,11.20
2022-10-30T14:27:04.792Z,12.85
2022-10-30T14:29:32.248Z,11.40
2022-10-30T14:31:59.827Z,9.88
2022-10-30T14:34:53.051Z,15.48
2022-10-30T14:37:28.161Z,12.10
2022-10-30T14:39:56.365Z,11.38
2022-10-30T14:42:27.945Z,11.30
2022-10-30T14:45:22.704Z,10.07
2022-10-30T14:48:34.172Z,8.75
2022-10-30T14:51:25.029Z,9.02
2022-10-30T14:53:51.805Z,10.68
2022-10-30T14:56:59.859Z,10.65
2022-10-30T14:59:34.534Z,12.15
2022-10-30T15:02:17.144Z,13.77
2022-10-30T15:05:28.236Z,14.73
2022-10-30T15:08:17.857Z,10.10
2022-10-30T15:11:04.369Z,12.18
2022-10-30T15:13:31.034Z,10.40
2022-10-30T15:16:03.120Z,12.88
2022-10-30T15:18:31.132Z,12.73
2022-10-30T15:21:06.915Z,10.60
2022-10-30T15:23:36.475Z,13.20
2022-10-30T15:26:09.539Z,15.65
2022-10-30T15:28:38.711Z,12.75
2022-10-30T15:31:22.733Z,15.55
2022-10-30T15:33:49.604Z,14.65
2022-10-30T15:36:19.034Z,12.18
2022-10-30T15:39:13.393Z,10.70
2022-10-30T15:41:46.156Z,9.65
2022-10-30T15:46:49.785Z,15.40
2022-10-30T15:49:31.168Z,12.63
2022-10-30T15:51:59.686Z,17.23
2022-10-30T15:54:28.264Z,13.60
2022-10-30T15:59:52.999Z,13.27
2022-10-30T16:02:22.329Z,13.40
2022-10-30T16:04:49.338Z,11.80
2022-10-30T16:07:25.042Z,14.13
2022-10-30T16:09:56.759Z,14.77
2022-10-30T16:12:29.336Z,9.88
2022-10-30T16:14:57.426Z,12.38
2022-10-30T16:17:26.180Z,12.50
2022-10-30T16:19:56.064Z,17.23
2022-10-30T16:22:36.141Z,16.45
2022-10-30T16:25:07.355Z,13.75
2022-10-30T16:27:33.996Z,15.05
2022-10-30T16:30:01.589Z,14.57
2022-10-30T16:32:30.993Z,15.40
2022-10-30T16:35:00.181Z,16.20
2022-10-30T16:37:38.546Z,14.80
2022-10-30T16:40:17.184Z,15.90
2022-10-30T16:42:55.272Z,13.93
2022-10-30T16:45:36.949Z,16.75
2022-10-30T16:48:19.333Z,17.08
2022-10-30T16:50:47.133Z,14.43
2022-10-30T16:53:24.661Z,15.43
2022-10-30T16:55:54.296Z,15.00
2022-10-30T16:58:23.990Z,14.52
2022-10-30T17:01:04.456Z,18.05
2022-10-30T17:03:36.391Z,15.63
2022-10-30T17:06:24.994Z,21.25
2022-10-30T17:08:53.755Z,20.63
2022-10-30T17:11:35.629Z,18.23
2022-10-30T17:14:23.021Z,19.52
2022-10-30T17:17:00.152Z,18.98
2022-10-30T17:19:33.053Z,19.10
2022-10-30T17:22:07.381Z,22.90
2022-10-30T17:24:37.436Z,22.30
2022-10-30T17:27:35.818Z,23.58
2022-10-30T17:30:03.409Z,18.50
2022-10-30T17:32:43.483Z,22.67
2022-10-30T17:35:15.888Z,21.73
2022-10-30T17:37:42.930Z,20.92
2022-10-30T17:40:14.690Z,23.70
2022-10-30T17:42:42.027Z,21.95
2022-10-30T17:45:25.649Z,22.58
2022-10-30T17:47:55.821Z,24.42
2022-10-30T17:50:23.727Z,24.90
2022-10-30T17:52:50.429Z,25.48
2022-10-30T17:55:32.600Z,26.30
2022-10-30T17:58:02.828Z,24.80
2022-10-30T18:00:32.610Z,27.33
2022-10-30T18:03:00.042Z,23.00
2022-10-30T18:05:33.276Z,29.08
2022-10-30T18:08:00.229Z,23.50
2022-10-30T18:10:27.616Z,27.85
2022-10-30T18:12:59.426Z,25.35
2022-10-30T18:15:40.236Z,24.30
2022-10-30T18:18:12.740Z,27.52
2022-10-30T18:20:39.997Z,25.73
2022-10-30T18:23:50.877Z,25.55
2022-10-30T18:26:24.538Z,32.75
2022-10-30T18:28:52.298Z,29.73
2022-10-30T18:31:24.947Z,27.63
2022-10-30T18:33:57.410Z,27.48
2022-10-30T18:36:31.075Z,32.25
2022-10-30T18:39:01.240Z,36.63
2022-10-30T18:41:44.059Z,32.25
2022-10-30T18:44:21.080Z,30.70
2022-10-30T18:47:01.771Z,32.80
2022-10-30T18:49:53.452Z,30.30
2022-10-30T18:52:25.015Z,32.50
2022-10-30T18:54:52.132Z,29.13
2022-10-30T18:57:25.510Z,29.85
2022-10-30T18:59:52.697Z,28.10
2022-10-30T19:02:26.504Z,31.92
2022-10-30T19:04:55.955Z,25.13
2022-10-30T19:07:28.239Z,27.23
2022-10-30T19:10:12.773Z,29.92
2022-10-30T19:13:11.619Z,27.65
2022-10-30T19:15:44.386Z,31.73
2022-10-30T19:18:12.116Z,34.92
2022-10-30T19:21:03.172Z,32.38
2022-10-30T19:23:29.361Z,31.75
2022-10-30T19:26:06.528Z,33.00
2022-10-30T19:28:35.064Z,35.83
2022-10-30T19:31:08.645Z,39.40
2022-10-30T19:33:35.772Z,37.38
2022-10-30T19:36:05.107Z,43.60
2022-10-30T19:38:32.756Z,42.25
2022-10-30T19:41:17.845Z,43.47
2022-10-30T19:43:44.883Z,42.13
2022-10-30T19:46:13.560Z,43.13
2022-10-30T19:49:00.356Z,44.72
2022-10-30T19:51:28.094Z,48.55
2022-10-30T19:53:57.627Z,52.03
2022-10-30T19:56:24.543Z,48.75
2022-10-30T19:58:51.628Z,47.00
2022-10-30T20:01:19.000Z,57.92
2022-10-30T20:03:51.640Z,47.30
2022-10-30T20:06:22.660Z,52.65
2022-10-30T20:11:35.445Z,47.78
2022-10-30T20:14:02.462Z,46.05
2022-10-30T20:16:43.021Z,46.50
2022-10-30T20:19:31.150Z,39.25
2022-10-30T20:24:54.563Z,44.58
2022-10-30T20:27:23.002Z,42.88
2022-10-30T20:29:56.503Z,43.33
2022-10-30T20:32:29.571Z,41.40
2022-10-30T20:34:57.885Z,44.15
2022-10-30T20:37:25.238Z,44.72
2022-10-30T20:39:54.523Z,41.13
2022-10-30T20:42:23.031Z,44.72
2022-10-30T20:44:50.344Z,42.53
2022-10-30T20:47:19.824Z,33.33
2022-10-30T20:49:47.195Z,33.83
2022-10-30T20:52:14.080Z,37.38
2022-10-30T20:54:41.727Z,37.38
2022-10-30T20:57:08.543Z,36.35
2022-10-30T20:59:35.757Z,36.85
2022-10-30T21:04:47.873Z,31.75
2022-10-30T21:07:14.917Z,31.92
2022-10-30T21:09:42.201Z,31.80
2022-10-30T21:12:08.982Z,32.67
2022-10-30T21:14:36.046Z,30.05
2022-10-30T21:17:02.888Z,30.20
2022-10-30T21:19:30.121Z,30.63
2022-10-30T21:24:36.921Z,30.20
2022-10-30T21:27:03.988Z,41.05
2022-10-30T21:29:32.735Z,31.98
2022-10-30T21:32:01.353Z,35.17
2022-10-30T21:34:30.175Z,35.33
2022-10-30T21:36:57.197Z,32.13
2022-10-30T21:39:26.812Z,34.80
2022-10-30T21:44:37.434Z,34.00
2022-10-30T21:47:04.448Z,41.00
2022-10-30T21:49:33.695Z,37.45
2022-10-30T21:52:00.412Z,42.30
2022-10-30T21:54:27.353Z,39.50
2022-10-30T21:56:54.477Z,37.65
2022-10-30T21:59:21.379Z,38.15
2022-10-30T22:02:10.053Z,36.90
2022-10-30T22:04:37.300Z,44.25
2022-10-30T22:07:04.127Z,37.30
2022-10-30T22:09:31.016Z,40.97
2022-10-30T22:11:58.126Z,40.50
2022-10-30T22:14:25.474Z,48.20
2022-10-30T22:16:52.424Z,42.00
2022-10-30T22:19:19.113Z,41.35
2022-10-30T22:21:46.101Z,43.38
2022-10-30T22:24:13.811Z,44.55
2022-10-30T22:26:40.518Z,42.10
2022-10-30T22:29:07.387Z,40.67
2022-10-30T22:31:34.038Z,34.67
2022-10-30T22:34:01.176Z,37.92
2022-10-30T22:36:33.179Z,34.13
2022-10-30T22:39:02.099Z,34.42
2022-10-30T22:41:32.952Z,34.53
2022-10-30T22:44:07.833Z,32.83
2022-10-30T22:46:35.244Z,38.03
2022-10-30T22:49:02.128Z,32.88
2022-10-30T22:51:34.121Z,33.33
2022-10-30T22:54:14.233Z,37.08
2022-10-30T22:56:50.108Z,36.03
2022-10-30T22:59:16.786Z,36.72
2022-10-30T23:01:44.391Z,33.72
2022-10-30T23:04:15.920Z,39.00
2022-10-30T23:06:43.481Z,37.17
2022-10-30T23:09:16.514Z,36.55
2022-10-30T23:11:43.509Z,38.45
2022-10-30T23:14:10.368Z,35.80
2022-10-30T23:16:37.196Z,37.22
2022-10-30T23:19:03.990Z,35.28
2022-10-30T23:21:31.645Z,37.72
2022-10-30T23:23:58.789Z,37.38
2022-10-30T23:26:34.347Z,42.92
2022-10-30T23:29:06.753Z,37.13
2022-10-30T23:31:40.975Z,41.50
2022-10-30T23:34:17.320Z,42.38
2022-10-30T23:36:44.456Z,36.33
2022-10-30T23:39:14.928Z,40.70
2022-10-30T23:41:42.120Z,43.53
2022-10-30T23:44:12.522Z,43.03
2022-10-30T23:46:39.464Z,39.13
2022-10-30T23:49:06.195Z,41.95
2022-10-30T23:51:33.414Z,43.15
2022-10-30T23:54:00.179Z,46.25
2022-10-30T23:56:27.017Z,43.90
2022-10-30T23:58:53.697Z,48.78
